Taishunmaru — JD4207 — position and weather

sailwx.info

Track history (hours):
 
Tides and Currents Weather Stations Pressure Air Temp Water Temp Dewpoint Dewpoint Depression Visibility Wind Speed Wind Dir Waves Ship Positions

Taishunmaru

Last reported at 2018-Jul-21 15:40 UTC. Time now 2018-Jul-22 00:49 UTC.
Position N 34°56' E 139°21'.

Length 75 m; draft 4.8 m.

Type: Cargo ship. MMSI: 431009748.

Date/timePositionNaut miles runAvg speedWind from/ knotsBaromVisibWave heightAir tempDewpointWater temp
2018-Jul-21 15:40N 34°56' E 139°21'2 9.0
2018-Jul-21 15:25N 34°57' E 139°23'4 9.5
2018-Jul-21 15:00N 34°60' E 139°27'5 9.7
2018-Jul-21 14:29N 35°02' E 139°32'10 9.8
2018-Jul-21 13:30N 35°08' E 139°42'5 9.7
2018-Jul-21 13:00N 35°12' E 139°45'5 9.4
2018-Jul-21 12:30N 35°16' E 139°45'510.2
2018-Jul-21 12:00N 35°21' E 139°43'5 9.8
2018-Jul-21 11:30N 35°25' E 139°45'510.4
2018-Jul-21 11:00N 35°29' E 139°50'510.0
2018-Jul-21 10:30N 35°31' E 139°55'710.1
2018-Jul-21 09:49N 35°34' E 140°03'2 0.3
2018-Jul-21 00:13N 35°34' E 140°06'2 7.6
2018-Jul-20 23:59N 35°34' E 140°04'0 0.0
2018-Jul-20 11:24N 35°34' E 140°04'0 0.0
2018-Jul-20 09:51N 35°34' E 140°04'3 8.8
2018-Jul-20 09:29N 35°33' E 140°00'611.8
2018-Jul-20 09:01N 35°30' E 139°54'612.2
2018-Jul-20 08:30N 35°26' E 139°49'612.2
2018-Jul-20 08:00N 35°21' E 139°45'510.9
2018-Jul-20 07:30N 35°16' E 139°47'611.9
2018-Jul-20 07:00N 35°10' E 139°47'612.3
2018-Jul-20 06:30N 35°04' E 139°46'610.9
2018-Jul-20 05:59N 34°58' E 139°44'4 8.5
2018-Jul-20 05:28N 34°54' E 139°46'  
Track history (hours):
 
Tides and Currents Weather Stations Pressure Air Temp Water Temp Dewpoint Dewpoint Depression Visibility Wind Speed Wind Dir Waves Ship Positions

Taishunmaru

Last reported at 2018-Jul-21 15:40 UTC. Time now 2018-Jul-22 00:49 UTC.
Position N 34°56' E 139°21'.

Length 75 m; draft 4.8 m.

Type: Cargo ship. MMSI: 431009748.

Date/timePositionNaut miles runAvg speedWind from/ knotsBaromVisibWave heightAir tempDewpointWater temp
2018-Jul-21 15:40N 34°56' E 139°21'2 9.0
2018-Jul-21 15:25N 34°57' E 139°23'4 9.5
2018-Jul-21 15:00N 34°60' E 139°27'5 9.7
2018-Jul-21 14:29N 35°02' E 139°32'10 9.8
2018-Jul-21 13:30N 35°08' E 139°42'5 9.7
2018-Jul-21 13:00N 35°12' E 139°45'5 9.4
2018-Jul-21 12:30N 35°16' E 139°45'510.2
2018-Jul-21 12:00N 35°21' E 139°43'5 9.8
2018-Jul-21 11:30N 35°25' E 139°45'510.4
2018-Jul-21 11:00N 35°29' E 139°50'510.0
2018-Jul-21 10:30N 35°31' E 139°55'710.1
2018-Jul-21 09:49N 35°34' E 140°03'2 0.3
2018-Jul-21 00:13N 35°34' E 140°06'2 7.6
2018-Jul-20 23:59N 35°34' E 140°04'0 0.0
2018-Jul-20 11:24N 35°34' E 140°04'0 0.0
2018-Jul-20 09:51N 35°34' E 140°04'3 8.8
2018-Jul-20 09:29N 35°33' E 140°00'611.8
2018-Jul-20 09:01N 35°30' E 139°54'612.2
2018-Jul-20 08:30N 35°26' E 139°49'612.2
2018-Jul-20 08:00N 35°21' E 139°45'510.9
2018-Jul-20 07:30N 35°16' E 139°47'611.9
2018-Jul-20 07:00N 35°10' E 139°47'612.3
2018-Jul-20 06:30N 35°04' E 139°46'610.9
2018-Jul-20 05:59N 34°58' E 139°44'4 8.5
2018-Jul-20 05:28N 34°54' E 139°46'  

Dump ship's entire track history